Aeroporto :
LOGIN :

Iscrizione | Disclaimer

   EN    FR    IT 

 










Sommario :    VFR   VFR Marginale   IFR   IFR Intensivo   IFR Molto Intensivo
Visibilità : 
Base nubi : 
>= 8 km
>= 3000ft
5 / 8 km
1000 / 3000 ft
1500m / 5 km
500 / 1000 ft
800 / 1500m
200 / 500 ft
< 800m
< 200 ft
Simboli :   Temporali  Nebbia  Neve Forte  Precipitazioni Forti  Vento > 20 kt
SIGMETs :   Varie  Temporali  Ghiacco  Turbolenza  Onda orograficha  Ceneri Vulcaniche






- Altitudine del aeroporto : 587 ft
- Codice IATA : XCR


LFOK - Chalons Vatry

ULTIMO METAR :
  • 030930Z AUTO 26010KT 230V290 9999 FEW037 19/11 Q1021 NOSIG

METARs OBSOLETI :
  • 030900Z AUTO 25010KT 220V300 9999 FEW032 19/11 Q1021 NOSIG
  • 030830Z AUTO 25010KT 9999 FEW026 18/12 Q1021 NOSIG
  • 030800Z AUTO 25008KT 210V280 CAVOK 18/12 Q1021 NOSIG
  • 030730Z AUTO 27007KT 230V290 CAVOK 17/12 Q1021 NOSIG
  • 030700Z AUTO 25005KT 200V280 9999 FEW036 16/12 Q1020 NOSIG

TAF TAF LFOK
Valido dal 03 a 06 ore il 04 a 06 ore UTC


030500Z 0306/0406 VRB02KT CAVOK
BECMG 0307/0310 26012KT
BECMG 0318/0321 VRB02KT



MetMap, La meteo Aeronautica in un colpo d'occhio ! - Copyright ORBIFLY Dicembre 2007 - Disclaimer

ORBIFLY MET'MAP TEAM :

Programmazione e sviluppo : Alexandra Zaïnal
Concezione : Baudouin d'Aumeries
Aiuto per la programmazione : Marc-Olivier Méhu
Supporto tecnico e logistico : Manuel Goepfert
Aiuto per la traduzione : Arnaldo La Scala

Contatto : metmap@orbifly.com




FONTI E CREDITI :

   NOAA